Time;durP1;ratioP1;P1;durP2;ratioP2;P2;SDS_P1;SDS_P2;PMS_P1;PMS_P2;Temp;Humidity;BMP_temperature;BMP_pressure;BME280_temperature;BME280_humidity;BME280_pressure;Samples;Min_cycle;Max_cycle;Signal;HPM_P1;HPM_P2
2021/11/07 00:04:50;;;;;;;8.50;2.80;;;;;;;;;;5112056;28;20423;-75
2021/11/07 00:07:21;;;;;;;5.83;2.90;;;;;;;;;;5113172;28;20787;-74
2021/11/07 00:10:01;;;;;;;4.40;3.40;;;;;;;;;;5113426;28;20482;-74
2021/11/07 00:12:31;;;;;;;4.50;3.50;;;;;;;;;;5114434;28;20458;-74
2021/11/07 00:14:58;;;;;;;3.70;3.00;;;;;;;;;;5115283;28;20447;-74
2021/11/07 00:17:29;;;;;;;3.10;2.80;;;;;;;;;;5115077;28;20442;-75
2021/11/07 00:20:00;;;;;;;4.40;3.30;;;;;;;;;;5112052;28;20450;-75
2021/11/07 00:22:35;;;;;;;4.90;3.30;;;;;;;;;;5110886;28;20446;-75
2021/11/07 00:25:05;;;;;;;4.20;3.13;;;;;;;;;;5095386;28;20450;-75
2021/11/07 00:27:35;;;;;;;3.57;2.50;;;;;;;;;;5112801;28;20468;-74
2021/11/07 00:30:13;;;;;;;5.10;2.97;;;;;;;;;;5112718;28;20527;-75
2021/11/07 00:32:49;;;;;;;4.77;2.87;;;;;;;;;;5112584;28;20481;-75
2021/11/07 00:37:48;;;;;;;4.40;2.80;;;;;;;;;;5114822;28;20825;-75
2021/11/07 00:40:22;;;;;;;4.00;2.90;;;;;;;;;;5114500;28;21029;-75
2021/11/07 00:42:55;;;;;;;3.27;2.87;;;;;;;;;;5091910;28;21107;-75
2021/11/07 00:45:28;;;;;;;5.67;3.20;;;;;;;;;;5109676;28;20443;-74
2021/11/07 00:48:07;;;;;;;3.43;2.80;;;;;;;;;;5112589;28;20791;-75
2021/11/07 00:50:44;;;;;;;5.30;3.27;;;;;;;;;;5112091;28;20524;-74
2021/11/07 00:53:24;;;;;;;7.80;3.37;;;;;;;;;;5096051;28;20446;-75
2021/11/07 00:55:58;;;;;;;5.40;2.90;;;;;;;;;;5113291;28;20553;-74
2021/11/07 00:58:37;;;;;;;3.90;2.80;;;;;;;;;;5114438;28;20469;-76
2021/11/07 01:01:08;;;;;;;4.20;2.87;;;;;;;;;;5114838;28;20442;-75
2021/11/07 01:03:37;;;;;;;3.10;2.40;;;;;;;;;;5112144;28;20495;-74
2021/11/07 01:06:04;;;;;;;5.60;3.00;;;;;;;;;;5109775;28;20434;-75
2021/11/07 01:08:31;;;;;;;4.13;3.20;;;;;;;;;;5111332;28;20482;-75
2021/11/07 01:11:00;;;;;;;8.00;3.20;;;;;;;;;;5111797;28;20480;-75
2021/11/07 01:13:28;;;;;;;4.10;3.57;;;;;;;;;;5112238;28;20454;-75
2021/11/07 01:15:55;;;;;;;4.20;3.20;;;;;;;;;;5112478;28;20442;-74
2021/11/07 01:18:23;;;;;;;5.73;3.20;;;;;;;;;;5113116;28;20758;-75
2021/11/07 01:20:53;;;;;;;3.07;2.70;;;;;;;;;;5113947;28;20462;-74
2021/11/07 01:23:25;;;;;;;2.93;2.57;;;;;;;;;;5113830;28;20438;-74
2021/11/07 01:25:56;;;;;;;2.67;2.30;;;;;;;;;;5093450;28;20966;-74
2021/11/07 01:28:26;;;;;;;4.23;2.27;;;;;;;;;;5109161;28;20446;-75
2021/11/07 01:30:56;;;;;;;4.60;2.30;;;;;;;;;;5110479;28;20559;-74
2021/11/07 01:33:25;;;;;;;5.30;2.37;;;;;;;;;;5111509;28;20453;-74
2021/11/07 01:36:02;;;;;;;3.80;2.77;;;;;;;;;;5111522;28;20807;-75
2021/11/07 01:38:35;;;;;;;3.73;2.87;;;;;;;;;;5111712;28;20449;-76
2021/11/07 01:41:02;;;;;;;5.77;2.90;;;;;;;;;;5111524;28;20513;-74
2021/11/07 01:43:30;;;;;;;6.00;2.50;;;;;;;;;;5109427;28;20503;-74
2021/11/07 01:46:06;;;;;;;2.63;2.10;;;;;;;;;;5110206;28;20438;-75
2021/11/07 01:48:41;;;;;;;4.93;2.50;;;;;;;;;;5094513;28;20445;-75
2021/11/07 01:51:10;;;;;;;3.53;2.67;;;;;;;;;;5111340;28;20706;-75
2021/11/07 01:53:39;;;;;;;5.87;2.40;;;;;;;;;;5111444;28;20442;-73
2021/11/07 01:56:08;;;;;;;2.47;1.63;;;;;;;;;;5111904;28;20850;-75
2021/11/07 01:58:36;;;;;;;5.10;2.00;;;;;;;;;;5113387;28;20430;-76
2021/11/07 02:01:03;;;;;;;2.60;1.50;;;;;;;;;;5095422;28;20442;-75
2021/11/07 02:03:30;;;;;;;2.33;1.80;;;;;;;;;;5092951;28;20451;-75
2021/11/07 02:05:57;;;;;;;6.23;1.70;;;;;;;;;;5108479;28;20431;-76
2021/11/07 02:08:26;;;;;;;5.73;1.80;;;;;;;;;;5110257;28;21007;-74
2021/11/07 02:10:54;;;;;;;2.13;1.37;;;;;;;;;;5110597;28;20828;-76
2021/11/07 02:13:22;;;;;;;1.77;1.60;;;;;;;;;;5111460;28;20468;-74
2021/11/07 02:15:49;;;;;;;3.20;1.37;;;;;;;;;;5111466;28;20438;-75
2021/11/07 02:18:17;;;;;;;2.83;1.70;;;;;;;;;;5112000;28;20802;-76
2021/11/07 02:20:46;;;;;;;3.37;1.57;;;;;;;;;;5113069;28;20520;-76
2021/11/07 02:23:15;;;;;;;2.37;1.20;;;;;;;;;;5095092;28;20457;-75
2021/11/07 02:25:43;;;;;;;3.43;1.50;;;;;;;;;;5110626;28;20456;-74
2021/11/07 02:28:11;;;;;;;3.30;1.33;;;;;;;;;;5108232;28;20935;-75
2021/11/07 02:30:40;;;;;;;1.60;1.43;;;;;;;;;;5109975;28;20941;-76
2021/11/07 02:33:07;;;;;;;2.73;1.50;;;;;;;;;;5111047;28;20446;-75
2021/11/07 02:35:34;;;;;;;3.87;1.40;;;;;;;;;;5110929;28;20454;-75
2021/11/07 02:38:03;;;;;;;1.43;1.20;;;;;;;;;;5111145;28;20446;-74
2021/11/07 02:40:30;;;;;;;1.23;1.13;;;;;;;;;;5111905;28;20466;-74
2021/11/07 02:42:58;;;;;;;1.67;1.27;;;;;;;;;;5112806;28;20439;-75
2021/11/07 02:45:25;;;;;;;1.80;1.03;;;;;;;;;;5112640;28;20775;-75
2021/11/07 02:47:52;;;;;;;2.17;1.10;;;;;;;;;;5110397;28;20457;-76
2021/11/07 02:50:20;;;;;;;1.43;1.20;;;;;;;;;;5108088;28;20482;-74
2021/11/07 02:52:48;;;;;;;2.63;1.33;;;;;;;;;;5109923;28;20816;-74
2021/11/07 02:55:17;;;;;;;1.30;1.10;;;;;;;;;;5110370;28;20438;-75
2021/11/07 02:57:47;;;;;;;1.67;1.30;;;;;;;;;;5110491;28;20545;-76
2021/11/07 03:00:16;;;;;;;2.00;1.37;;;;;;;;;;5092999;28;21007;-75
2021/11/07 03:02:44;;;;;;;1.47;1.10;;;;;;;;;;5111872;28;20466;-74
2021/11/07 03:05:12;;;;;;;3.60;1.57;;;;;;;;;;5112647;28;20534;-74
2021/11/07 03:07:41;;;;;;;1.33;1.10;;;;;;;;;;5095906;28;20910;-75
2021/11/07 03:10:09;;;;;;;2.60;1.43;;;;;;;;;;5113429;28;20520;-75
2021/11/07 03:12:37;;;;;;;1.50;1.20;;;;;;;;;;5092842;28;20950;-75
2021/11/07 03:15:06;;;;;;;1.63;1.20;;;;;;;;;;5093534;28;20435;-74
2021/11/07 03:17:33;;;;;;;2.97;1.40;;;;;;;;;;5092587;28;20879;-74
2021/11/07 03:20:01;;;;;;;2.33;1.30;;;;;;;;;;5093531;28;20832;-75
2021/11/07 03:22:29;;;;;;;1.43;1.23;;;;;;;;;;5094157;28;20449;-74
2021/11/07 03:24:56;;;;;;;1.53;1.43;;;;;;;;;;5114388;28;20495;-75
2021/11/07 03:27:25;;;;;;;2.23;1.07;;;;;;;;;;5098066;28;20446;-74
2021/11/07 03:29:56;;;;;;;1.80;1.50;;;;;;;;;;5116170;28;20465;-74
2021/11/07 03:32:26;;;;;;;1.30;1.17;;;;;;;;;;5112424;28;20469;-75
2021/11/07 03:34:56;;;;;;;1.47;1.20;;;;;;;;;;5112004;28;20443;-75
2021/11/07 03:37:26;;;;;;;2.40;1.23;;;;;;;;;;5113469;28;20510;-75
2021/11/07 03:39:54;;;;;;;1.50;1.40;;;;;;;;;;5095947;28;20458;-74
2021/11/07 03:42:22;;;;;;;2.10;1.90;;;;;;;;;;5114335;28;20444;-74
2021/11/07 03:44:49;;;;;;;1.57;1.40;;;;;;;;;;5113747;28;20945;-75
2021/11/07 03:47:18;;;;;;;2.00;1.10;;;;;;;;;;5098232;28;20442;-74
2021/11/07 03:49:45;;;;;;;1.47;1.37;;;;;;;;;;5115933;28;20462;-74
2021/11/07 03:52:13;;;;;;;1.57;1.40;;;;;;;;;;5115919;28;20450;-75
2021/11/07 03:54:41;;;;;;;2.23;1.63;;;;;;;;;;5093083;28;20962;-74
2021/11/07 03:57:11;;;;;;;1.50;1.40;;;;;;;;;;5111781;28;20441;-75
2021/11/07 03:59:39;;;;;;;2.17;1.40;;;;;;;;;;5112958;28;20462;-75
2021/11/07 04:02:06;;;;;;;2.90;1.40;;;;;;;;;;5113033;28;20434;-75
2021/11/07 04:04:35;;;;;;;2.03;1.50;;;;;;;;;;5113565;28;20931;-76
2021/11/07 04:07:02;;;;;;;1.87;1.30;;;;;;;;;;5095431;28;20442;-74
2021/11/07 04:09:29;;;;;;;2.60;1.30;;;;;;;;;;5115522;28;20462;-74
2021/11/07 04:11:56;;;;;;;2.07;1.30;;;;;;;;;;5115321;28;20848;-74
2021/11/07 04:14:24;;;;;;;3.27;1.17;;;;;;;;;;5115333;28;20446;-74
2021/11/07 04:16:51;;;;;;;1.30;1.20;;;;;;;;;;5111172;28;20449;-74
2021/11/07 04:19:18;;;;;;;1.63;1.40;;;;;;;;;;5110778;28;20458;-75
2021/11/07 04:21:49;;;;;;;1.87;1.47;;;;;;;;;;5112420;28;20942;-75
2021/11/07 04:24:16;;;;;;;1.50;1.40;;;;;;;;;;5112928;28;20453;-74
2021/11/07 04:26:43;;;;;;;1.90;1.33;;;;;;;;;;5113268;28;20450;-74
2021/11/07 04:29:11;;;;;;;1.50;1.40;;;;;;;;;;5112781;28;22066;-74
2021/11/07 04:31:38;;;;;;;5.30;1.70;;;;;;;;;;5114849;28;20832;-75
2021/11/07 04:34:05;;;;;;;2.07;1.30;;;;;;;;;;5114799;28;20790;-75
2021/11/07 04:36:32;;;;;;;1.50;1.40;;;;;;;;;;5114916;28;20445;-76
2021/11/07 04:39:01;;;;;;;1.57;1.47;;;;;;;;;;5110796;28;20454;-74
2021/11/07 04:41:28;;;;;;;2.03;1.47;;;;;;;;;;5110514;28;20949;-75
2021/11/07 04:43:55;;;;;;;1.70;1.57;;;;;;;;;;5112519;28;20439;-75
2021/11/07 04:46:23;;;;;;;1.83;1.40;;;;;;;;;;5112307;28;20453;-75
2021/11/07 04:48:50;;;;;;;1.77;1.67;;;;;;;;;;5112899;28;20518;-73
2021/11/07 04:51:18;;;;;;;2.07;1.93;;;;;;;;;;5112681;28;20492;-76
2021/11/07 04:53:46;;;;;;;3.07;1.67;;;;;;;;;;5114587;28;20449;-74
2021/11/07 04:56:16;;;;;;;2.27;1.97;;;;;;;;;;5114441;28;20950;-76
2021/11/07 04:58:44;;;;;;;2.10;2.00;;;;;;;;;;5114319;28;20453;-74
2021/11/07 05:01:11;;;;;;;2.23;2.03;;;;;;;;;;5110034;28;20430;-74
2021/11/07 05:03:38;;;;;;;2.50;2.30;;;;;;;;;;5091082;28;20439;-74
2021/11/07 05:06:06;;;;;;;2.10;2.00;;;;;;;;;;5112229;28;20446;-75
2021/11/07 05:08:33;;;;;;;2.20;2.00;;;;;;;;;;5112074;28;20820;-75
2021/11/07 05:11:00;;;;;;;2.67;2.17;;;;;;;;;;5111943;28;20470;-75
2021/11/07 05:13:29;;;;;;;1.93;1.80;;;;;;;;;;5112179;28;20458;-74
2021/11/07 05:15:56;;;;;;;2.47;2.27;;;;;;;;;;5114222;28;20438;-74
2021/11/07 05:18:24;;;;;;;2.40;2.20;;;;;;;;;;5114053;28;20450;-76
2021/11/07 05:20:51;;;;;;;2.40;2.20;;;;;;;;;;5114044;28;20970;-75
2021/11/07 05:23:18;;;;;;;3.50;2.60;;;;;;;;;;5109426;28;20446;-75
2021/11/07 05:25:45;;;;;;;2.63;2.43;;;;;;;;;;5109676;28;20435;-75
2021/11/07 05:28:13;;;;;;;3.00;2.70;;;;;;;;;;5111777;28;20438;-75
2021/11/07 05:30:42;;;;;;;2.80;2.50;;;;;;;;;;5111057;28;20846;-76
2021/11/07 05:33:10;;;;;;;2.50;2.30;;;;;;;;;;5112076;28;20505;-74
2021/11/07 05:35:37;;;;;;;2.53;2.33;;;;;;;;;;5094151;28;20443;-76
2021/11/07 05:38:04;;;;;;;3.83;2.70;;;;;;;;;;5113715;28;20910;-75
2021/11/07 05:40:31;;;;;;;2.63;2.40;;;;;;;;;;5113529;28;20815;-75
2021/11/07 05:42:59;;;;;;;3.03;2.80;;;;;;;;;;5113415;28;20450;-74
2021/11/07 05:45:26;;;;;;;2.27;2.03;;;;;;;;;;5109261;28;20449;-75
2021/11/07 05:47:55;;;;;;;2.97;2.40;;;;;;;;;;5109392;28;20470;-74
2021/11/07 05:50:23;;;;;;;2.50;2.30;;;;;;;;;;5111268;28;20462;-74
2021/11/07 05:52:51;;;;;;;3.17;2.50;;;;;;;;;;5093353;28;20443;-74
2021/11/07 05:55:19;;;;;;;4.20;2.97;;;;;;;;;;5111665;28;20927;-74
2021/11/07 05:57:46;;;;;;;3.47;2.80;;;;;;;;;;5093815;28;20459;-75
2021/11/07 06:00:14;;;;;;;4.10;3.00;;;;;;;;;;5113342;28;20464;-75
2021/11/07 06:02:42;;;;;;;4.20;3.60;;;;;;;;;;5113255;28;20438;-75
2021/11/07 06:05:11;;;;;;;3.90;3.03;;;;;;;;;;5112815;28;20446;-75
2021/11/07 06:07:38;;;;;;;3.97;2.87;;;;;;;;;;5089401;28;20790;-74
2021/11/07 06:10:06;;;;;;;3.43;3.13;;;;;;;;;;5109430;28;20541;-74
2021/11/07 06:12:33;;;;;;;3.70;3.13;;;;;;;;;;5111276;28;20474;-75
2021/11/07 06:15:01;;;;;;;3.03;2.73;;;;;;;;;;5111268;28;20446;-74
2021/11/07 06:17:28;;;;;;;2.70;2.50;;;;;;;;;;5111379;28;20461;-74
2021/11/07 06:19:55;;;;;;;3.20;3.00;;;;;;;;;;5111309;28;20463;-74
2021/11/07 06:22:24;;;;;;;4.00;3.13;;;;;;;;;;5113165;28;20435;-74
2021/11/07 06:24:51;;;;;;;5.23;3.67;;;;;;;;;;5113022;28;20954;-74
2021/11/07 06:27:18;;;;;;;5.83;3.47;;;;;;;;;;5112736;28;20545;-74
2021/11/07 06:29:45;;;;;;;3.97;3.20;;;;;;;;;;5108481;28;20477;-75
2021/11/07 06:32:13;;;;;;;4.07;3.40;;;;;;;;;;5108341;28;20513;-75
2021/11/07 06:34:40;;;;;;;3.67;2.80;;;;;;;;;;5110732;28;20446;-74
2021/11/07 06:37:10;;;;;;;4.20;3.30;;;;;;;;;;5110522;28;20445;-73
2021/11/07 06:39:38;;;;;;;3.03;2.83;;;;;;;;;;5110487;28;20461;-74
2021/11/07 06:42:07;;;;;;;3.50;2.80;;;;;;;;;;5111547;28;20492;-74
2021/11/07 06:44:34;;;;;;;4.90;3.20;;;;;;;;;;5112577;28;20431;-74
2021/11/07 06:47:03;;;;;;;5.27;3.00;;;;;;;;;;5113096;28;20442;-74
2021/11/07 06:49:30;;;;;;;3.83;2.53;;;;;;;;;;5114804;28;20458;-75
2021/11/07 06:51:57;;;;;;;3.10;2.87;;;;;;;;;;5114664;28;21029;-74
2021/11/07 06:54:26;;;;;;;4.83;2.60;;;;;;;;;;5115077;28;20452;-75
2021/11/07 06:56:54;;;;;;;2.77;2.40;;;;;;;;;;5115259;28;20467;-74
2021/11/07 06:59:22;;;;;;;3.73;2.90;;;;;;;;;;5116791;28;20550;-75
2021/11/07 07:01:49;;;;;;;2.97;2.70;;;;;;;;;;5116675;28;20879;-75
2021/11/07 07:04:16;;;;;;;3.80;3.03;;;;;;;;;;5116306;28;20449;-75
2021/11/07 07:06:44;;;;;;;3.90;3.03;;;;;;;;;;5112475;28;21448;-75
2021/11/07 07:09:13;;;;;;;2.70;2.50;;;;;;;;;;5112798;28;20488;-75
2021/11/07 07:11:43;;;;;;;4.57;2.90;;;;;;;;;;5114443;28;20474;-75
2021/11/07 07:14:15;;;;;;;5.03;2.80;;;;;;;;;;5114466;28;20543;-74
2021/11/07 07:16:48;;;;;;;2.93;2.73;;;;;;;;;;5114304;28;20442;-76
2021/11/07 07:19:36;;;;;;;4.83;3.10;;;;;;;;;;5114809;28;20529;-76
2021/11/07 07:22:16;;;;;;;4.90;2.50;;;;;;;;;;5116306;28;20474;-76
2021/11/07 07:27:39;;;;;;;6.20;3.63;;;;;;;;;;5112985;28;20961;-77
2021/11/07 07:30:14;;;;;;;3.07;2.77;;;;;;;;;;5111797;28;20540;-75
2021/11/07 07:35:26;;;;;;;4.00;3.67;;;;;;;;;;5097544;28;20418;-75
2021/11/07 07:37:53;;;;;;;5.77;4.40;;;;;;;;;;5113919;28;20698;-75
2021/11/07 07:40:21;;;;;;;4.63;4.17;;;;;;;;;;5113965;28;20458;-75
2021/11/07 07:42:48;;;;;;;5.00;4.13;;;;;;;;;;5097172;28;20541;-74
2021/11/07 07:45:16;;;;;;;4.90;4.20;;;;;;;;;;5115666;28;20442;-75
2021/11/07 07:47:44;;;;;;;4.30;3.90;;;;;;;;;;5115738;28;20439;-74
2021/11/07 07:50:12;;;;;;;5.73;3.87;;;;;;;;;;5112350;28;20543;-75
2021/11/07 07:52:39;;;;;;;4.13;3.70;;;;;;;;;;5091991;28;20477;-77
2021/11/07 07:55:07;;;;;;;5.50;3.90;;;;;;;;;;5112818;28;20446;-76
2021/11/07 07:57:35;;;;;;;5.50;4.10;;;;;;;;;;5113425;28;20987;-76
2021/11/07 08:00:02;;;;;;;9.90;4.20;;;;;;;;;;5113466;28;20461;-75
2021/11/07 08:02:31;;;;;;;5.00;3.87;;;;;;;;;;5113763;28;20499;-75
2021/11/07 08:04:58;;;;;;;4.50;4.00;;;;;;;;;;5114893;28;20450;-75
2021/11/07 08:07:27;;;;;;;5.30;4.20;;;;;;;;;;5115388;28;20442;-75
2021/11/07 08:09:54;;;;;;;6.50;4.20;;;;;;;;;;5115469;28;20978;-75
2021/11/07 08:12:21;;;;;;;4.70;3.93;;;;;;;;;;5112006;28;20470;-76
2021/11/07 08:14:49;;;;;;;5.23;3.77;;;;;;;;;;5111342;28;20780;-76
2021/11/07 08:17:16;;;;;;;5.20;4.70;;;;;;;;;;5112729;28;20454;-76
2021/11/07 08:19:46;;;;;;;5.60;4.00;;;;;;;;;;5095203;28;20813;-76
2021/11/07 08:22:13;;;;;;;4.60;4.17;;;;;;;;;;5113500;28;20488;-76
2021/11/07 08:24:40;;;;;;;5.23;3.67;;;;;;;;;;5113355;28;20488;-76
2021/11/07 08:27:08;;;;;;;5.10;3.93;;;;;;;;;;5114537;28;20462;-75
2021/11/07 08:29:36;;;;;;;5.33;4.30;;;;;;;;;;5114855;28;20477;-76
2021/11/07 08:32:03;;;;;;;5.40;3.80;;;;;;;;;;5096879;28;20485;-75
2021/11/07 08:34:32;;;;;;;8.70;4.17;;;;;;;;;;5093184;28;20430;-75
2021/11/07 08:37:04;;;;;;;5.07;4.53;;;;;;;;;;5110712;28;20530;-77
2021/11/07 08:39:34;;;;;;;6.37;4.83;;;;;;;;;;5112193;28;20515;-75
2021/11/07 08:42:04;;;;;;;7.30;4.23;;;;;;;;;;5112504;28;20442;-76
2021/11/07 09:00:43;;;;;;;6.80;5.97;;;;;;;;;;5109883;28;20805;-76
2021/11/07 09:03:18;;;;;;;9.40;6.70;;;;;;;;;;5112048;28;20435;-76
2021/11/07 09:08:28;;;;;;;6.23;4.80;;;;;;;;;;5096329;28;20426;-78
2021/11/07 09:10:58;;;;;;;10.17;6.77;;;;;;;;;;5113153;28;20861;-75
2021/11/07 09:13:25;;;;;;;11.20;7.90;;;;;;;;;;5114023;28;20904;-74
2021/11/07 09:15:53;;;;;;;10.47;6.20;;;;;;;;;;5114403;28;20920;-76
2021/11/07 09:18:20;;;;;;;15.93;7.47;;;;;;;;;;5094307;28;20442;-76
2021/11/07 09:20:56;;;;;;;10.87;6.80;;;;;;;;;;5109516;28;20450;-75
2021/11/07 09:23:28;;;;;;;17.57;8.73;;;;;;;;;;5094150;28;20442;-75
2021/11/07 09:28:43;;;;;;;8.60;5.40;;;;;;;;;;5110674;28;20426;-76
2021/11/07 09:31:17;;;;;;;10.77;5.70;;;;;;;;;;5111911;28;20469;-77
2021/11/07 09:33:50;;;;;;;9.93;5.23;;;;;;;;;;5113116;28;20482;-73
2021/11/07 09:36:21;;;;;;;7.77;3.83;;;;;;;;;;5114049;28;20847;-75
2021/11/07 09:38:52;;;;;;;10.70;4.53;;;;;;;;;;5113692;28;20466;-74
2021/11/07 09:41:30;;;;;;;12.80;5.53;;;;;;;;;;5092765;28;20430;-74
2021/11/07 09:44:01;;;;;;;15.80;5.77;;;;;;;;;;5091624;28;20444;-75
2021/11/07 09:46:35;;;;;;;8.80;4.13;;;;;;;;;;5110998;28;20553;-74
2021/11/07 09:49:13;;;;;;;12.07;4.80;;;;;;;;;;5110920;28;20519;-75
2021/11/07 09:51:41;;;;;;;11.57;5.10;;;;;;;;;;5111698;28;20804;-74
2021/11/07 09:54:10;;;;;;;11.30;4.20;;;;;;;;;;5111449;28;20474;-74
2021/11/07 09:56:44;;;;;;;9.80;4.47;;;;;;;;;;5095855;28;20842;-75
2021/11/07 09:59:12;;;;;;;13.17;4.90;;;;;;;;;;5113156;28;20466;-74
2021/11/07 10:01:39;;;;;;;10.57;4.23;;;;;;;;;;5113263;28;20451;-75
2021/11/07 10:04:06;;;;;;;8.97;4.00;;;;;;;;;;5109734;28;20442;-74
2021/11/07 10:06:37;;;;;;;6.60;3.40;;;;;;;;;;5109198;28;20777;-73
2021/11/07 10:09:06;;;;;;;8.37;3.70;;;;;;;;;;5110707;28;20512;-74
2021/11/07 10:11:36;;;;;;;14.60;4.20;;;;;;;;;;5110965;28;20813;-75
2021/11/07 10:14:11;;;;;;;8.97;4.03;;;;;;;;;;5111009;28;20478;-73
2021/11/07 10:16:43;;;;;;;7.93;3.97;;;;;;;;;;5093864;28;20447;-74
2021/11/07 10:19:15;;;;;;;11.83;3.50;;;;;;;;;;5113472;28;20904;-74
2021/11/07 10:21:47;;;;;;;7.33;3.70;;;;;;;;;;5112992;28;20453;-74
2021/11/07 10:24:17;;;;;;;11.37;4.57;;;;;;;;;;5095211;28;20450;-76
2021/11/07 10:26:46;;;;;;;10.87;3.00;;;;;;;;;;5109186;28;20441;-74
2021/11/07 10:29:23;;;;;;;10.40;3.80;;;;;;;;;;5108670;28;20462;-74
2021/11/07 10:31:57;;;;;;;10.63;3.73;;;;;;;;;;5110583;28;20474;-74
2021/11/07 10:34:36;;;;;;;15.00;4.00;;;;;;;;;;5110496;28;20447;-75
2021/11/07 10:39:58;;;;;;;14.40;4.20;;;;;;;;;;5075261;28;20465;-74
2021/11/07 10:42:44;;;;;;;10.93;3.63;;;;;;;;;;5092437;28;20451;-73
2021/11/07 10:45:21;;;;;;;9.90;4.30;;;;;;;;;;5092271;28;20442;-74
2021/11/07 10:53:15;;;;;;;7.13;3.20;;;;;;;;;;5108892;28;20685;-75
2021/11/07 10:55:43;;;;;;;7.63;3.30;;;;;;;;;;5092693;28;20478;-74
2021/11/07 10:58:11;;;;;;;10.80;5.07;;;;;;;;;;5111086;28;20444;-75
2021/11/07 11:00:40;;;;;;;4.77;3.33;;;;;;;;;;5093109;28;20825;-75
2021/11/07 11:03:08;;;;;;;10.57;3.63;;;;;;;;;;5093998;28;20931;-75
2021/11/07 11:05:38;;;;;;;11.60;4.77;;;;;;;;;;5094711;28;20445;-74
2021/11/07 11:08:09;;;;;;;12.43;4.83;;;;;;;;;;5109898;28;20891;-73
2021/11/07 11:10:46;;;;;;;10.77;4.10;;;;;;;;;;5107304;28;20515;-74
2021/11/07 11:13:20;;;;;;;11.00;4.80;;;;;;;;;;5109830;28;20561;-74
2021/11/07 11:15:59;;;;;;;13.50;3.80;;;;;;;;;;5092475;28;20504;-74
2021/11/07 11:21:22;;;;;;;7.40;3.90;;;;;;;;;;5109060;28;20426;-76
2021/11/07 11:24:07;;;;;;;10.77;4.33;;;;;;;;;;5108439;28;20440;-74
2021/11/07 11:26:46;;;;;;;11.37;4.23;;;;;;;;;;5108357;28;20536;-74
2021/11/07 11:29:37;;;;;;;10.33;4.47;;;;;;;;;;5112685;28;20462;-75
2021/11/07 11:32:09;;;;;;;10.13;4.17;;;;;;;;;;5114190;28;20465;-74
2021/11/07 11:34:41;;;;;;;12.37;5.33;;;;;;;;;;5113846;28;20449;-74
2021/11/07 11:37:14;;;;;;;14.83;4.37;;;;;;;;;;5115022;28;20520;-75
2021/11/07 11:39:44;;;;;;;11.40;3.70;;;;;;;;;;5116130;28;20511;-75
2021/11/07 11:42:15;;;;;;;7.80;3.27;;;;;;;;;;5116006;28;20446;-74
2021/11/07 11:44:45;;;;;;;10.53;3.50;;;;;;;;;;5096444;28;20919;-74
2021/11/07 11:47:28;;;;;;;11.67;4.60;;;;;;;;;;5111165;28;20822;-74
2021/11/07 11:50:09;;;;;;;14.90;5.00;;;;;;;;;;5112890;28;20469;-75
2021/11/07 11:52:44;;;;;;;18.80;5.73;;;;;;;;;;5112374;28;20478;-75
2021/11/07 11:55:29;;;;;;;13.17;4.50;;;;;;;;;;5105753;28;20445;-76
2021/11/07 11:58:09;;;;;;;10.97;3.57;;;;;;;;;;5113594;28;20446;-74
2021/11/07 12:00:46;;;;;;;9.93;3.30;;;;;;;;;;5109260;28;20458;-74
2021/11/07 12:03:32;;;;;;;15.90;6.93;;;;;;;;;;5093343;28;20521;-75
2021/11/07 12:06:03;;;;;;;11.57;5.40;;;;;;;;;;5113431;28;20449;-74
2021/11/07 12:08:35;;;;;;;7.87;3.20;;;;;;;;;;5113466;28;20438;-74
2021/11/07 12:11:23;;;;;;;7.93;4.30;;;;;;;;;;5113268;28;20438;-74
2021/11/07 12:13:54;;;;;;;15.47;4.87;;;;;;;;;;5099225;28;20490;-74
2021/11/07 12:16:36;;;;;;;8.20;3.97;;;;;;;;;;5097823;28;20791;-75
2021/11/07 12:19:08;;;;;;;10.90;3.83;;;;;;;;;;5099427;28;20859;-75
2021/11/07 12:21:50;;;;;;;9.63;4.03;;;;;;;;;;5112973;28;20435;-75
2021/11/07 12:24:18;;;;;;;10.20;3.60;;;;;;;;;;5109586;28;20444;-74
2021/11/07 12:26:45;;;;;;;18.87;5.30;;;;;;;;;;5112397;28;20935;-74
2021/11/07 12:29:12;;;;;;;13.60;3.97;;;;;;;;;;5112736;28;20802;-74
2021/11/07 12:31:58;;;;;;;13.10;4.50;;;;;;;;;;5112663;28;20478;-75
2021/11/07 12:34:47;;;;;;;7.17;4.33;;;;;;;;;;5094791;28;20487;-75
2021/11/07 12:42:39;;;;;;;11.10;3.70;;;;;;;;;;5109235;28;20464;-76
2021/11/07 12:45:21;;;;;;;11.07;4.80;;;;;;;;;;5111182;28;20453;-75
2021/11/07 12:47:57;;;;;;;9.67;4.23;;;;;;;;;;5096954;28;20446;-76
2021/11/07 12:50:26;;;;;;;9.83;3.60;;;;;;;;;;5112568;28;20465;-75
2021/11/07 12:52:56;;;;;;;13.00;3.93;;;;;;;;;;5112635;28;20478;-75
2021/11/07 12:55:25;;;;;;;9.93;3.37;;;;;;;;;;5113347;28;20817;-76
2021/11/07 12:57:52;;;;;;;18.33;7.50;;;;;;;;;;5096523;28;20442;-75
2021/11/07 13:00:19;;;;;;;13.43;5.93;;;;;;;;;;5114275;28;20462;-75
2021/11/07 13:02:47;;;;;;;17.10;5.50;;;;;;;;;;5112382;28;20439;-75
2021/11/07 13:05:18;;;;;;;12.80;5.63;;;;;;;;;;5110138;28;20446;-75
2021/11/07 13:07:49;;;;;;;16.10;5.67;;;;;;;;;;5111633;28;20443;-75
2021/11/07 13:10:22;;;;;;;13.27;5.30;;;;;;;;;;5111983;28;20929;-76
2021/11/07 13:12:52;;;;;;;9.27;3.87;;;;;;;;;;5112127;28;20446;-76
2021/11/07 13:15:29;;;;;;;8.97;3.87;;;;;;;;;;5094240;28;20493;-76
2021/11/07 13:20:57;;;;;;;14.10;4.07;;;;;;;;;;5098094;28;20970;-76
2021/11/07 13:23:42;;;;;;;16.07;4.03;;;;;;;;;;5114068;28;20434;-75
2021/11/07 13:26:17;;;;;;;7.03;3.00;;;;;;;;;;5110294;28;20854;-75
2021/11/07 13:28:57;;;;;;;13.83;3.70;;;;;;;;;;5091878;28;20436;-76
2021/11/07 13:31:27;;;;;;;11.73;4.07;;;;;;;;;;5111531;28;20470;-75
2021/11/07 13:34:05;;;;;;;9.83;3.50;;;;;;;;;;5111472;28;20489;-75
2021/11/07 13:36:40;;;;;;;6.60;3.07;;;;;;;;;;5111795;28;20955;-74
2021/11/07 13:39:11;;;;;;;8.47;3.70;;;;;;;;;;5112196;28;20497;-75
2021/11/07 13:41:41;;;;;;;17.60;4.37;;;;;;;;;;5113626;28;20447;-75
2021/11/07 13:44:14;;;;;;;11.07;3.93;;;;;;;;;;5113539;28;20515;-74
2021/11/07 13:46:49;;;;;;;10.07;3.50;;;;;;;;;;5095318;28;20961;-74
2021/11/07 13:49:17;;;;;;;12.50;3.90;;;;;;;;;;5108917;28;21413;-74
2021/11/07 13:51:51;;;;;;;18.80;6.70;;;;;;;;;;5109563;28;20681;-74
2021/11/07 13:54:20;;;;;;;22.90;5.40;;;;;;;;;;5093268;28;20469;-74
2021/11/07 13:56:47;;;;;;;13.83;5.87;;;;;;;;;;5111278;28;20480;-75
2021/11/07 13:59:27;;;;;;;14.67;5.97;;;;;;;;;;5111160;28;20466;-75
2021/11/07 14:01:55;;;;;;;12.60;3.93;;;;;;;;;;5112115;28;20817;-75
2021/11/07 14:04:22;;;;;;;15.47;4.20;;;;;;;;;;5113225;28;20434;-73
2021/11/07 14:06:49;;;;;;;7.87;4.03;;;;;;;;;;5113370;28;20442;-74
2021/11/07 14:09:18;;;;;;;12.40;2.90;;;;;;;;;;5111843;28;21040;-76
2021/11/07 14:11:50;;;;;;;11.43;4.50;;;;;;;;;;5108751;28;20458;-75
2021/11/07 14:14:19;;;;;;;16.63;6.20;;;;;;;;;;5109827;28;20519;-75
2021/11/07 14:16:49;;;;;;;15.50;5.50;;;;;;;;;;5111016;28;20774;-76
2021/11/07 14:19:17;;;;;;;17.47;4.90;;;;;;;;;;5111477;28;20466;-75
2021/11/07 14:21:46;;;;;;;15.40;4.70;;;;;;;;;;5110943;28;20536;-75
2021/11/07 14:24:16;;;;;;;13.30;4.60;;;;;;;;;;5093971;28;20461;-74
2021/11/07 14:26:49;;;;;;;12.13;4.50;;;;;;;;;;5095461;28;20446;-76
2021/11/07 14:29:22;;;;;;;13.80;5.67;;;;;;;;;;5113008;28;20462;-75
2021/11/07 14:31:54;;;;;;;15.43;5.23;;;;;;;;;;5111039;28;20485;-75
2021/11/07 14:34:25;;;;;;;13.23;4.57;;;;;;;;;;5089077;28;21093;-75
2021/11/07 14:36:57;;;;;;;18.60;4.90;;;;;;;;;;5109465;28;21037;-75
2021/11/07 14:39:36;;;;;;;20.30;4.80;;;;;;;;;;5110513;28;20881;-75
2021/11/07 14:42:11;;;;;;;21.83;6.33;;;;;;;;;;5110742;28;20525;-76
2021/11/07 14:44:43;;;;;;;14.20;4.30;;;;;;;;;;5110928;28;21014;-76
2021/11/07 14:47:16;;;;;;;24.83;7.20;;;;;;;;;;5111889;28;20455;-75
2021/11/07 14:52:38;;;;;;;13.43;5.20;;;;;;;;;;5111708;28;20450;-78
2021/11/07 14:55:08;;;;;;;11.70;4.10;;;;;;;;;;5108840;28;20941;-75
2021/11/07 14:58:02;;;;;;;7.77;2.67;;;;;;;;;;5107201;28;20464;-75
2021/11/07 15:00:38;;;;;;;17.67;5.37;;;;;;;;;;5109701;28;20466;-75
2021/11/07 15:03:12;;;;;;;9.97;3.30;;;;;;;;;;5093932;28;20442;-75
2021/11/07 15:05:42;;;;;;;12.23;4.00;;;;;;;;;;5114512;28;20442;-76
2021/11/07 15:08:13;;;;;;;21.13;5.50;;;;;;;;;;5114662;28;20451;-75
2021/11/07 15:10:46;;;;;;;7.00;3.20;;;;;;;;;;5113811;28;20929;-75
2021/11/07 15:13:25;;;;;;;10.90;4.93;;;;;;;;;;5111921;28;20923;-75
2021/11/07 15:16:03;;;;;;;17.00;5.17;;;;;;;;;;5093488;28;20446;-75
2021/11/07 15:18:38;;;;;;;19.83;5.13;;;;;;;;;;5077146;28;20469;-75
2021/11/07 15:21:12;;;;;;;17.67;4.00;;;;;;;;;;5094424;28;20448;-76
2021/11/07 15:23:40;;;;;;;16.60;4.60;;;;;;;;;;5096315;28;20443;-76
2021/11/07 15:26:20;;;;;;;15.97;4.57;;;;;;;;;;5116309;28;20517;-77
2021/11/07 15:28:54;;;;;;;15.83;4.97;;;;;;;;;;5116151;28;20445;-76
2021/11/07 15:31:22;;;;;;;11.33;4.20;;;;;;;;;;5116162;28;20555;-76
2021/11/07 15:33:49;;;;;;;11.60;3.20;;;;;;;;;;5111754;28;20481;-75
2021/11/07 15:36:25;;;;;;;8.60;3.63;;;;;;;;;;5111965;28;20434;-76
2021/11/07 15:39:01;;;;;;;12.80;3.57;;;;;;;;;;5113831;28;20479;-76
2021/11/07 15:41:28;;;;;;;10.33;3.47;;;;;;;;;;5114094;28;20504;-76
2021/11/07 15:43:56;;;;;;;9.67;3.80;;;;;;;;;;5114212;28;20915;-76
2021/11/07 15:46:24;;;;;;;10.27;3.20;;;;;;;;;;5114506;28;20446;-77
2021/11/07 15:48:52;;;;;;;10.10;3.33;;;;;;;;;;5115824;28;20446;-76
2021/11/07 15:51:26;;;;;;;11.43;4.40;;;;;;;;;;5115785;28;20477;-76
2021/11/07 15:54:01;;;;;;;16.83;3.90;;;;;;;;;;5115046;28;20509;-76